createdAt,value
2022-08-17T00:00:30.999Z,9.9
2022-08-17T00:01:41.114Z,10
2022-08-17T00:02:51.231Z,10.2
2022-08-17T00:04:00.371Z,9.9
2022-08-17T00:05:10.493Z,9.6
2022-08-17T00:06:20.595Z,9.8
2022-08-17T00:07:30.725Z,9.6
2022-08-17T00:08:40.845Z,9.8
2022-08-17T00:09:50.958Z,9.8
2022-08-17T00:11:01.065Z,9.6
2022-08-17T00:12:10.222Z,9.8
2022-08-17T00:13:19.353Z,10
2022-08-17T00:14:28.490Z,10.2
2022-08-17T00:15:37.640Z,10.2
2022-08-17T00:16:47.741Z,9.8
2022-08-17T00:17:57.860Z,10.2
2022-08-17T00:19:07.990Z,9.6
2022-08-17T00:20:18.095Z,9.8
2022-08-17T00:21:28.228Z,9.8
2022-08-17T00:22:38.347Z,9.8
2022-08-17T00:23:48.454Z,9.8
2022-08-17T00:24:58.572Z,9.6
2022-08-17T00:26:08.699Z,9.6
2022-08-17T00:27:18.816Z,10.3
2022-08-17T00:28:28.926Z,10
2022-08-17T00:29:39.039Z,9.6
2022-08-17T00:30:48.187Z,10
2022-08-17T00:31:58.305Z,10
2022-08-17T00:33:08.412Z,10
2022-08-17T00:34:18.529Z,9.8
2022-08-17T00:35:28.651Z,9.6
2022-08-17T00:36:38.765Z,9.9
2022-08-17T00:37:48.880Z,9.8
2022-08-17T00:38:58.039Z,10
2022-08-17T00:40:08.149Z,9.7
2022-08-17T00:41:17.287Z,9.6
2022-08-17T00:42:26.437Z,10.3
2022-08-17T00:43:36.549Z,10.2
2022-08-17T00:44:46.668Z,9.8
2022-08-17T00:45:56.776Z,10
2022-08-17T00:47:06.908Z,9.8
2022-08-17T00:48:17.023Z,9.8
2022-08-17T00:49:27.142Z,9.8
2022-08-17T00:50:37.252Z,9.9
2022-08-17T00:51:47.379Z,10.3
2022-08-17T00:52:57.500Z,9.9
2022-08-17T00:54:07.601Z,10.3
2022-08-17T00:55:17.726Z,10
2022-08-17T00:56:27.846Z,10.3
2022-08-17T00:57:36.976Z,10
2022-08-17T00:58:47.086Z,10.2
2022-08-17T00:59:57.221Z,9.7
2022-08-17T01:02:17.449Z,10.3
2022-08-17T01:03:27.562Z,9.9
2022-08-17T01:04:37.686Z,9.6
2022-08-17T01:05:47.798Z,10.2
2022-08-17T01:06:57.922Z,10
2022-08-17T01:08:07.057Z,9.8
2022-08-17T01:09:16.192Z,10
2022-08-17T01:10:26.309Z,10.3
2022-08-17T01:11:35.461Z,10
2022-08-17T01:12:44.589Z,9.8
2022-08-17T01:13:54.708Z,9.8
2022-08-17T01:15:04.834Z,10.3
2022-08-17T01:16:14.947Z,10.1
2022-08-17T01:17:25.069Z,10.2
2022-08-17T01:18:35.183Z,9.8
2022-08-17T01:19:45.304Z,10
2022-08-17T01:20:55.419Z,9.6
2022-08-17T01:22:05.532Z,9.8
2022-08-17T01:23:15.666Z,9.8
2022-08-17T01:24:25.784Z,9.8
2022-08-17T01:25:35.885Z,9.6
2022-08-17T01:26:46.017Z,10
2022-08-17T01:27:55.142Z,9.8
2022-08-17T01:29:05.264Z,9.7
2022-08-17T01:30:15.378Z,9.8
2022-08-17T01:31:25.490Z,10
2022-08-17T01:32:35.628Z,9.9
2022-08-17T01:33:45.728Z,9.6
2022-08-17T01:34:55.846Z,9.8
2022-08-17T01:36:05.005Z,9.8
2022-08-17T01:37:14.132Z,9.9
2022-08-17T01:38:23.271Z,9.9
2022-08-17T01:39:33.394Z,9.8
2022-08-17T01:40:42.523Z,9.6
2022-08-17T01:41:52.636Z,9.8
2022-08-17T01:43:02.755Z,9.8
2022-08-17T01:44:11.901Z,9.6
2022-08-17T01:45:22.020Z,9.8
2022-08-17T01:46:32.148Z,9.9
2022-08-17T01:47:42.254Z,9.8
2022-08-17T01:48:52.371Z,9.8
2022-08-17T01:50:02.488Z,9.6
2022-08-17T01:51:12.605Z,9.8
2022-08-17T01:52:22.723Z,9.9
2022-08-17T01:53:32.836Z,10.3
2022-08-17T01:54:42.968Z,9.7
2022-08-17T01:55:53.073Z,10
2022-08-17T01:57:03.203Z,9.6
2022-08-17T01:58:13.313Z,9.8
2022-08-17T01:59:22.455Z,9.8
2022-08-17T02:00:32.577Z,10.4
2022-08-17T02:01:42.678Z,9.6
2022-08-17T02:02:51.826Z,9.8
2022-08-17T02:04:00.970Z,9.8
2022-08-17T02:05:11.080Z,10.2
2022-08-17T02:06:21.207Z,9.9
2022-08-17T02:07:31.317Z,9.6
2022-08-17T02:08:41.435Z,9.9
2022-08-17T02:09:51.549Z,9.6
2022-08-17T02:11:01.683Z,10
2022-08-17T02:12:11.798Z,9.9
2022-08-17T02:13:21.899Z,9.8
2022-08-17T02:14:32.021Z,9.9
2022-08-17T02:15:42.144Z,9.8
2022-08-17T02:16:52.252Z,9.6
2022-08-17T02:18:02.373Z,9.8
2022-08-17T02:19:11.503Z,9.6
2022-08-17T02:20:21.623Z,9.8
2022-08-17T02:21:31.750Z,9.6
2022-08-17T02:22:41.857Z,9.6
2022-08-17T02:23:51.984Z,9.8
2022-08-17T02:25:02.094Z,10
2022-08-17T02:26:12.215Z,9.8
2022-08-17T02:27:21.363Z,10
2022-08-17T02:28:31.474Z,9.6
2022-08-17T02:29:40.616Z,9.9
2022-08-17T02:30:50.738Z,9.6
2022-08-17T02:32:00.854Z,9.8
2022-08-17T02:33:10.968Z,9.6
2022-08-17T02:34:21.082Z,9.8
2022-08-17T02:35:31.215Z,9.8
2022-08-17T02:36:41.318Z,9.7
2022-08-17T02:37:51.441Z,9.7
2022-08-17T02:39:01.553Z,9.8
2022-08-17T02:40:11.687Z,9.8
2022-08-17T02:41:21.801Z,10
2022-08-17T02:42:31.917Z,9.9
2022-08-17T02:43:42.027Z,10
2022-08-17T02:44:51.157Z,9.8
2022-08-17T02:46:01.278Z,9.8
2022-08-17T02:47:11.407Z,9.8
2022-08-17T02:48:21.524Z,10
2022-08-17T02:49:31.637Z,9.8
2022-08-17T02:50:41.748Z,9.8
2022-08-17T02:51:50.897Z,9.6
2022-08-17T02:53:01.016Z,10
2022-08-17T02:54:10.157Z,9.8
2022-08-17T02:55:19.292Z,10
2022-08-17T02:56:28.434Z,9.6
2022-08-17T02:57:37.575Z,9.8
2022-08-17T02:58:47.686Z,9.7
2022-08-17T02:59:57.816Z,9.6
2022-08-17T03:01:07.934Z,9.8
2022-08-17T03:02:18.043Z,10
2022-08-17T03:03:28.156Z,9.6
2022-08-17T03:04:38.000Z,9.8
2022-08-17T03:05:48.394Z,9.8
2022-08-17T03:06:58.509Z,9.6
2022-08-17T03:08:08.637Z,10
2022-08-17T03:09:18.759Z,10.2
2022-08-17T03:10:28.868Z,9.7
2022-08-17T03:11:38.984Z,9.6
2022-08-17T03:12:49.103Z,9.6
2022-08-17T03:13:58.247Z,10
2022-08-17T03:15:08.355Z,9.8
2022-08-17T03:16:18.470Z,9.8
2022-08-17T03:17:28.589Z,9.9
2022-08-17T03:18:38.715Z,9.9
2022-08-17T03:19:48.839Z,10.1
2022-08-17T03:20:57.976Z,9.8
2022-08-17T03:22:07.102Z,9.7
2022-08-17T03:23:17.394Z,9.6
2022-08-17T03:24:26.514Z,9.5
2022-08-17T03:25:36.635Z,9.8
2022-08-17T03:26:46.737Z,9.8
2022-08-17T03:27:56.860Z,9.8
2022-08-17T03:29:06.000Z,9.7
2022-08-17T03:30:17.107Z,9.6
2022-08-17T03:31:27.212Z,9.9
2022-08-17T03:32:37.332Z,9.8
2022-08-17T03:33:47.446Z,9.6
2022-08-17T03:34:57.573Z,10
2022-08-17T03:36:07.686Z,9.9
2022-08-17T03:37:17.807Z,10
2022-08-17T03:38:27.915Z,9.8
2022-08-17T03:39:37.059Z,10
2022-08-17T03:40:47.183Z,10
2022-08-17T03:41:57.287Z,9.8
2022-08-17T03:43:07.410Z,9.8
2022-08-17T03:44:17.523Z,9.8
2022-08-17T03:45:27.645Z,10.2
2022-08-17T03:46:37.771Z,10.2
2022-08-17T03:47:46.904Z,9.8
2022-08-17T03:48:56.045Z,9.7
2022-08-17T03:50:05.198Z,9.9
2022-08-17T03:51:14.326Z,9.8
2022-08-17T03:52:24.444Z,9.8
2022-08-17T03:53:34.561Z,9.6
2022-08-17T03:54:44.675Z,10
2022-08-17T03:55:54.788Z,9.8
2022-08-17T03:57:04.914Z,9.9
2022-08-17T03:58:15.022Z,9.6
2022-08-17T03:59:25.155Z,9.8
2022-08-17T04:00:35.258Z,9.9
2022-08-17T04:01:45.377Z,9.7
2022-08-17T04:02:55.503Z,9.6
2022-08-17T04:04:05.625Z,9.6
2022-08-17T04:05:15.738Z,9.6
2022-08-17T04:06:24.868Z,9.7
2022-08-17T04:07:34.985Z,9.7
2022-08-17T04:08:45.100Z,9.6
2022-08-17T04:09:55.222Z,9.9
2022-08-17T04:11:05.351Z,9.8
2022-08-17T04:12:15.460Z,10.3
2022-08-17T04:13:25.583Z,9.6
2022-08-17T04:14:35.705Z,9.6
2022-08-17T04:15:44.848Z,9.7
2022-08-17T04:16:53.973Z,9.8
2022-08-17T04:18:04.098Z,10
2022-08-17T04:19:14.216Z,10.1
2022-08-17T04:20:23.348Z,9.6
2022-08-17T04:21:33.596Z,9.7
2022-08-17T04:22:43.712Z,9.8
2022-08-17T04:23:53.832Z,9.8
2022-08-17T04:25:03.945Z,9.8
2022-08-17T04:26:14.065Z,9.6
2022-08-17T04:27:24.180Z,10
2022-08-17T04:28:34.300Z,9.9
2022-08-17T04:29:44.425Z,9.8
2022-08-17T04:30:54.530Z,9.6
2022-08-17T04:32:04.655Z,9.6
2022-08-17T04:33:14.784Z,9.6
2022-08-17T04:34:24.890Z,10
2022-08-17T04:35:35.010Z,9.8
2022-08-17T04:36:44.135Z,10.1
2022-08-17T04:37:54.255Z,9.8
2022-08-17T04:39:04.381Z,9.8
2022-08-17T04:40:14.495Z,9.8
2022-08-17T04:41:24.622Z,9.7
2022-08-17T04:42:34.730Z,9.6
2022-08-17T04:43:44.846Z,9.8
2022-08-17T04:44:54.002Z,9.9
2022-08-17T04:46:03.136Z,9.8
2022-08-17T04:47:13.246Z,9.6
2022-08-17T04:48:23.372Z,9.9
2022-08-17T04:49:33.489Z,9.7
2022-08-17T04:50:43.611Z,9.6
2022-08-17T04:51:53.730Z,9.7
2022-08-17T04:53:03.832Z,9.6
2022-08-17T04:54:13.966Z,9.8
2022-08-17T04:55:24.064Z,10
2022-08-17T04:56:34.201Z,9.6
2022-08-17T04:57:44.313Z,9.8
2022-08-17T04:58:54.425Z,9.6
2022-08-17T05:00:04.549Z,9.6
2022-08-17T05:01:13.678Z,9.4
2022-08-17T05:02:23.806Z,9.6
2022-08-17T05:03:33.923Z,9.3
2022-08-17T05:04:44.036Z,9.6
2022-08-17T05:05:54.146Z,9.8
2022-08-17T05:07:04.272Z,9.4
2022-08-17T05:08:14.392Z,9.8
2022-08-17T05:09:23.524Z,10
2022-08-17T05:10:32.670Z,9.8
2022-08-17T05:11:42.786Z,9.7
2022-08-17T05:12:52.901Z,9.4
2022-08-17T05:14:03.022Z,9.6
2022-08-17T05:15:13.144Z,9.6
2022-08-17T05:16:23.260Z,9.7
2022-08-17T05:17:33.370Z,9.6
2022-08-17T05:18:43.484Z,9.3
2022-08-17T05:19:53.613Z,9.9
2022-08-17T05:21:03.727Z,10
2022-08-17T05:22:13.844Z,9.7
2022-08-17T05:23:23.957Z,9.4
2022-08-17T05:24:34.088Z,9.6
2022-08-17T05:25:43.218Z,9.8
2022-08-17T05:26:53.327Z,9.9
2022-08-17T05:28:03.449Z,9.9
2022-08-17T05:29:13.568Z,9.8
2022-08-17T05:30:23.688Z,9.6
2022-08-17T05:31:33.796Z,9.7
2022-08-17T05:32:43.921Z,9.8
2022-08-17T05:33:53.062Z,9.6
2022-08-17T05:35:02.199Z,9.3
2022-08-17T05:36:11.336Z,9.8
2022-08-17T05:37:20.480Z,9.6
2022-08-17T05:38:29.630Z,9.6
2022-08-17T05:39:38.757Z,9.8
2022-08-17T05:40:47.908Z,9.6
2022-08-17T05:41:57.046Z,9.3
2022-08-17T05:43:07.151Z,9.9
2022-08-17T05:44:17.274Z,9.8
2022-08-17T05:45:27.397Z,9.4
2022-08-17T05:46:37.504Z,9.6
2022-08-17T05:47:47.624Z,9.6
2022-08-17T05:48:57.757Z,9.8
2022-08-17T05:50:07.867Z,9.3
2022-08-17T05:51:17.990Z,9.8
2022-08-17T05:52:28.097Z,9.7
2022-08-17T05:53:38.219Z,9.6
2022-08-17T05:54:48.340Z,9.6
2022-08-17T05:55:58.456Z,9.9
2022-08-17T05:57:07.584Z,9.6
2022-08-17T05:58:17.718Z,9.8
2022-08-17T05:59:27.825Z,9.7
2022-08-17T06:00:37.943Z,9.9
2022-08-17T06:01:48.059Z,9.7
2022-08-17T06:02:58.183Z,9.7
2022-08-17T06:04:08.297Z,9.8
2022-08-17T06:05:17.442Z,9.3
2022-08-17T06:06:26.577Z,9.8
2022-08-17T06:08:46.812Z,9.6
2022-08-17T06:09:56.937Z,9.6
2022-08-17T06:11:07.038Z,9.7
2022-08-17T06:12:17.159Z,9.4
2022-08-17T06:13:27.280Z,9.8
2022-08-17T06:14:37.410Z,9.8
2022-08-17T06:15:47.526Z,9.5
2022-08-17T06:16:57.640Z,9.6
2022-08-17T06:18:07.765Z,9.9
2022-08-17T06:19:17.879Z,9.6
2022-08-17T06:20:27.988Z,9.4
2022-08-17T06:21:37.130Z,9.3
2022-08-17T06:22:47.236Z,9.7
2022-08-17T06:23:57.356Z,9.4
2022-08-17T06:25:07.471Z,9.6
2022-08-17T06:26:17.607Z,9.6
2022-08-17T06:27:27.718Z,9.7
2022-08-17T06:28:37.825Z,9.7
2022-08-17T06:29:47.959Z,9.6
2022-08-17T06:30:58.087Z,9.3
2022-08-17T06:32:07.207Z,9.8
2022-08-17T06:33:17.328Z,9.4
2022-08-17T06:34:26.467Z,9.7
2022-08-17T06:35:35.601Z,9.3
2022-08-17T06:36:44.756Z,9.4
2022-08-17T06:37:53.890Z,9.6
2022-08-17T06:39:04.000Z,9.7
2022-08-17T06:40:14.121Z,9.7
2022-08-17T06:41:24.245Z,9.4
2022-08-17T06:42:34.356Z,9.6
2022-08-17T06:43:44.486Z,9.3
2022-08-17T06:44:54.593Z,9.6
2022-08-17T06:47:14.839Z,9.4
2022-08-17T06:48:24.949Z,9.6
2022-08-17T06:49:35.058Z,9.8
2022-08-17T06:50:45.179Z,9.3
2022-08-17T06:51:55.304Z,9.7
2022-08-17T06:53:04.433Z,9.6
2022-08-17T06:54:14.557Z,9.4
2022-08-17T06:55:24.679Z,9.4
2022-08-17T06:56:34.795Z,9.6
2022-08-17T06:57:44.916Z,9.7
2022-08-17T06:58:55.024Z,9.4
2022-08-17T07:00:05.146Z,9.4
2022-08-17T07:01:15.263Z,9.7
2022-08-17T07:02:24.400Z,9.8
2022-08-17T07:03:33.537Z,9.4
2022-08-17T07:04:42.686Z,9.6
2022-08-17T07:05:51.827Z,9.7
2022-08-17T07:07:01.943Z,9.4
2022-08-17T07:09:22.174Z,9.4
2022-08-17T07:10:32.284Z,9.4
2022-08-17T07:11:42.412Z,9.4
2022-08-17T07:12:52.518Z,9.7
2022-08-17T07:14:02.653Z,9.6
2022-08-17T07:15:12.772Z,9.6
2022-08-17T07:16:22.878Z,9.6
2022-08-17T07:17:32.994Z,9.6
2022-08-17T07:18:43.116Z,9.6
2022-08-17T07:19:53.226Z,9.7
2022-08-17T07:21:02.366Z,9.7
2022-08-17T07:23:22.598Z,9.3
2022-08-17T07:24:31.739Z,9.4
2022-08-17T07:25:40.874Z,9.3
2022-08-17T07:26:50.999Z,9.7
2022-08-17T07:28:01.127Z,9.6
2022-08-17T07:29:11.228Z,9.9
2022-08-17T07:30:21.358Z,9.7
2022-08-17T07:31:31.469Z,9.6
2022-08-17T07:32:41.593Z,9.4
2022-08-17T07:33:51.709Z,9.5
2022-08-17T07:35:01.817Z,9.6
2022-08-17T07:36:11.949Z,9.6
2022-08-17T07:37:22.069Z,9.6
2022-08-17T07:38:32.191Z,9.4
2022-08-17T07:39:41.324Z,9.4
2022-08-17T07:40:50.461Z,9.6
2022-08-17T07:42:00.570Z,9.7
2022-08-17T07:43:10.698Z,9.4
2022-08-17T07:44:20.819Z,9.5
2022-08-17T07:45:30.939Z,9.6
2022-08-17T07:46:41.048Z,9.6
2022-08-17T07:47:51.170Z,9.4
2022-08-17T07:49:01.296Z,9.7
2022-08-17T07:50:11.411Z,9.4
2022-08-17T07:51:21.528Z,9.2
2022-08-17T07:52:31.640Z,9.7
2022-08-17T07:53:41.766Z,9.4
2022-08-17T07:54:51.883Z,9.4
2022-08-17T07:56:01.008Z,9.3
2022-08-17T07:57:11.120Z,9.4
2022-08-17T07:58:21.255Z,9.3
2022-08-17T07:59:31.366Z,9.2
2022-08-17T08:00:41.481Z,9.2
2022-08-17T08:01:51.609Z,9.4
2022-08-17T08:03:01.725Z,9.7
2022-08-17T08:04:10.858Z,9.2
2022-08-17T08:05:19.998Z,9.5
2022-08-17T08:06:29.148Z,9.4
2022-08-17T08:07:38.269Z,9.3
2022-08-17T08:08:48.390Z,9.2
2022-08-17T08:09:58.529Z,9.7
2022-08-17T08:11:08.622Z,9.4
2022-08-17T08:12:18.750Z,9.2
2022-08-17T08:13:28.867Z,9.4
2022-08-17T08:14:38.994Z,9.4
2022-08-17T08:15:49.109Z,9.2
2022-08-17T08:16:59.223Z,9.3
2022-08-17T08:19:19.459Z,9.2
2022-08-17T08:20:29.566Z,9.4
2022-08-17T08:21:39.683Z,9.4
2022-08-17T08:22:48.823Z,9.2
2022-08-17T08:23:58.946Z,9.4
2022-08-17T08:26:19.188Z,9.4
2022-08-17T08:27:28.323Z,9.7
2022-08-17T08:28:37.453Z,9.7
2022-08-17T08:29:46.601Z,9.7
2022-08-17T08:30:55.729Z,9.5
2022-08-17T08:32:05.863Z,9.4
2022-08-17T08:33:15.980Z,9.3
2022-08-17T08:34:26.094Z,9.2
2022-08-17T08:35:36.210Z,9.2
2022-08-17T08:36:46.334Z,9.3
2022-08-17T08:37:56.440Z,9.2
2022-08-17T08:39:06.567Z,9.3
2022-08-17T08:40:16.688Z,9.3
2022-08-17T08:41:26.791Z,9.4
2022-08-17T08:42:35.953Z,9.4
2022-08-17T08:43:45.086Z,9.2
2022-08-17T08:44:55.195Z,9.6
2022-08-17T08:46:05.321Z,9.4
2022-08-17T08:47:15.440Z,9.4
2022-08-17T08:48:25.555Z,9.4
2022-08-17T08:49:35.672Z,9.2
2022-08-17T08:50:45.784Z,9.4
2022-08-17T08:51:55.905Z,9.4
2022-08-17T08:53:06.029Z,9.3
2022-08-17T08:54:16.140Z,9.4
2022-08-17T08:55:26.248Z,9.4
2022-08-17T08:56:36.379Z,9.7
2022-08-17T08:57:46.495Z,9.4
2022-08-17T08:58:55.625Z,9.2
2022-08-17T09:00:05.740Z,9.2
2022-08-17T09:01:15.855Z,9.3
2022-08-17T09:02:25.990Z,9.1
2022-08-17T09:03:36.091Z,9.2
2022-08-17T09:04:46.221Z,9.7
2022-08-17T09:05:56.339Z,9.2
2022-08-17T09:07:05.472Z,9.3
2022-08-17T09:08:14.616Z,9.4
2022-08-17T09:09:24.738Z,9
2022-08-17T09:10:33.878Z,9.2
2022-08-17T09:11:43.987Z,9.1
2022-08-17T09:12:54.109Z,9
2022-08-17T09:14:03.244Z,9.1
2022-08-17T09:15:13.369Z,9.2
2022-08-17T09:16:23.491Z,9.5
2022-08-17T09:17:33.600Z,9.4
2022-08-17T09:19:53.829Z,9.3
2022-08-17T09:21:03.956Z,9.3
2022-08-17T09:22:14.075Z,9.2
2022-08-17T09:23:24.200Z,9.2
2022-08-17T09:24:34.307Z,9.4
2022-08-17T09:25:44.424Z,9.2
2022-08-17T09:26:54.543Z,9.3
2022-08-17T09:28:04.669Z,9.2
2022-08-17T09:29:13.787Z,9
2022-08-17T09:30:23.911Z,9.2
2022-08-17T09:31:34.034Z,9.1
2022-08-17T09:32:43.174Z,9
2022-08-17T09:35:03.400Z,9.4
2022-08-17T09:36:13.535Z,9.2
2022-08-17T09:37:22.671Z,9.2
2022-08-17T09:38:31.802Z,9.2
2022-08-17T09:39:40.963Z,9.2
2022-08-17T09:40:50.078Z,9.3
2022-08-17T09:42:00.212Z,9.4
2022-08-17T09:43:10.317Z,9.1
2022-08-17T09:44:20.436Z,9.3
2022-08-17T09:45:30.547Z,9.4
2022-08-17T09:46:40.667Z,9.4
2022-08-17T09:47:50.785Z,9.4
2022-08-17T09:49:00.919Z,9.1
2022-08-17T09:50:11.035Z,9.2
2022-08-17T09:51:21.151Z,9.4
2022-08-17T09:52:31.264Z,9.2
2022-08-17T09:53:41.376Z,9.1
2022-08-17T09:54:51.505Z,8.9
2022-08-17T09:56:00.639Z,9.2
2022-08-17T09:57:10.751Z,9.1
2022-08-17T09:58:20.868Z,9.2
2022-08-17T09:59:30.980Z,9
2022-08-17T10:00:41.106Z,9.1
2022-08-17T10:01:51.223Z,8.9
2022-08-17T10:03:01.344Z,9.3
2022-08-17T10:04:10.484Z,9
2022-08-17T10:05:20.611Z,9
2022-08-17T10:06:29.758Z,9.3
2022-08-17T10:07:38.891Z,9.1
2022-08-17T10:08:49.012Z,9
2022-08-17T10:09:59.111Z,9
2022-08-17T10:11:09.248Z,9.1
2022-08-17T10:12:19.352Z,9
2022-08-17T10:13:29.470Z,9.1
2022-08-17T10:14:39.602Z,9.2
2022-08-17T10:15:49.722Z,9.2
2022-08-17T10:16:59.836Z,9.3
2022-08-17T10:18:09.958Z,9
2022-08-17T10:19:20.065Z,9.1
2022-08-17T10:20:30.185Z,9.3
2022-08-17T10:21:40.311Z,9
2022-08-17T10:23:59.563Z,9.2
2022-08-17T10:25:09.669Z,8.9
2022-08-17T10:26:19.792Z,9.2
2022-08-17T10:27:29.913Z,9
2022-08-17T10:28:40.030Z,9.1
2022-08-17T10:29:50.149Z,9
2022-08-17T10:31:00.269Z,8.8
2022-08-17T10:32:10.393Z,8.9
2022-08-17T10:33:19.537Z,8.9
2022-08-17T10:34:28.671Z,9.2
2022-08-17T10:35:37.811Z,9
2022-08-17T10:36:46.953Z,9.1
2022-08-17T10:37:56.098Z,9
2022-08-17T10:39:05.221Z,9.2
2022-08-17T10:40:15.340Z,8.9
2022-08-17T10:41:25.470Z,9.1
2022-08-17T10:42:35.586Z,9.1
2022-08-17T10:43:45.696Z,8.8
2022-08-17T10:44:55.818Z,9
2022-08-17T10:46:05.933Z,8.9
2022-08-17T10:47:16.048Z,9
2022-08-17T10:48:26.166Z,9.1
2022-08-17T10:49:36.290Z,9
2022-08-17T10:50:46.000Z,9.1
2022-08-17T10:51:56.521Z,8.9
2022-08-17T10:53:06.656Z,9
2022-08-17T10:54:15.783Z,9
2022-08-17T10:55:25.898Z,9
2022-08-17T10:56:36.010Z,9
2022-08-17T10:57:46.142Z,9.2
2022-08-17T10:58:56.256Z,8.6
2022-08-17T11:00:06.385Z,8.9
2022-08-17T11:01:16.498Z,9.1
2022-08-17T11:02:25.647Z,8.6
2022-08-17T11:03:34.782Z,8.7
2022-08-17T11:04:44.894Z,8.7
2022-08-17T11:05:54.030Z,8.9
2022-08-17T11:07:03.179Z,8.6
2022-08-17T11:08:13.290Z,8.6
2022-08-17T11:09:23.419Z,9.1
2022-08-17T11:10:33.535Z,8.7
2022-08-17T11:11:43.638Z,8.7
2022-08-17T11:12:53.770Z,8.9
2022-08-17T11:14:03.884Z,8.9
2022-08-17T11:15:14.013Z,8.7
2022-08-17T11:16:24.128Z,8.8
2022-08-17T11:17:34.234Z,8.9
2022-08-17T11:18:44.368Z,8.9
2022-08-17T11:19:54.470Z,8.9
2022-08-17T11:21:04.606Z,8.9
2022-08-17T11:22:13.729Z,8.6
2022-08-17T11:23:23.855Z,8.6
2022-08-17T11:24:33.971Z,8.7
2022-08-17T11:25:44.083Z,8.7
2022-08-17T11:26:54.197Z,8.8
2022-08-17T11:28:04.324Z,8.8
2022-08-17T11:29:14.452Z,8.9
2022-08-17T11:30:23.595Z,8.9
2022-08-17T11:31:32.724Z,8.9
2022-08-17T11:32:42.851Z,8.9
2022-08-17T11:33:51.983Z,8.6
2022-08-17T11:35:01.128Z,8.9
2022-08-17T11:36:11.244Z,8.9
2022-08-17T11:37:21.366Z,8.8
2022-08-17T11:38:31.475Z,8.6
2022-08-17T11:39:41.587Z,8.9
2022-08-17T11:40:51.722Z,8.6
2022-08-17T11:42:01.828Z,8.6
2022-08-17T11:43:11.953Z,9.1
2022-08-17T11:44:22.072Z,8.6
2022-08-17T11:45:32.200Z,9
2022-08-17T11:46:42.306Z,8.7
2022-08-17T11:47:52.436Z,8.9
2022-08-17T11:49:02.544Z,8.9
2022-08-17T11:50:11.691Z,8.9
2022-08-17T11:51:21.809Z,8.9
2022-08-17T11:52:31.912Z,8.8
2022-08-17T11:53:42.030Z,8.5
2022-08-17T11:54:52.151Z,8.5
2022-08-17T11:56:02.278Z,8.6
2022-08-17T11:57:12.401Z,8.9
2022-08-17T11:58:21.532Z,8.5
2022-08-17T11:59:30.677Z,8.8
2022-08-17T12:00:40.798Z,8.7
2022-08-17T12:01:49.938Z,8.6
2022-08-17T12:02:59.073Z,8.6
2022-08-17T12:04:09.186Z,8.8
2022-08-17T12:05:19.316Z,8.4
2022-08-17T12:06:29.439Z,8.4
2022-08-17T12:07:39.548Z,8.6
2022-08-17T12:08:49.661Z,8.7
2022-08-17T12:09:59.790Z,8.6
2022-08-17T12:11:09.910Z,8.5
2022-08-17T12:12:20.015Z,8.8
2022-08-17T12:13:30.142Z,8.6
2022-08-17T12:14:40.253Z,8.5
2022-08-17T12:15:50.386Z,8.5
2022-08-17T12:17:00.496Z,8.7
2022-08-17T12:18:09.641Z,8.6
2022-08-17T12:19:19.754Z,8.5
2022-08-17T12:20:29.863Z,8.9
2022-08-17T12:21:39.996Z,8.6
2022-08-17T12:22:50.104Z,8.5
2022-08-17T12:24:00.230Z,8.8
2022-08-17T12:25:10.341Z,8.5
2022-08-17T12:26:19.496Z,8.6
2022-08-17T12:27:28.626Z,8.6
2022-08-17T12:28:38.739Z,8.5
2022-08-17T12:29:47.885Z,8.7
2022-08-17T12:30:57.014Z,8.6
2022-08-17T12:32:07.143Z,8.5
2022-08-17T12:33:17.263Z,8.4
2022-08-17T12:34:27.377Z,8.5
2022-08-17T12:35:37.496Z,8.6
2022-08-17T12:36:47.616Z,8.5
2022-08-17T12:37:57.726Z,8.5
2022-08-17T12:39:07.848Z,8.3
2022-08-17T12:40:17.964Z,8.6
2022-08-17T12:41:28.090Z,8.4
2022-08-17T12:42:38.218Z,8.5
2022-08-17T12:43:48.319Z,8.4
2022-08-17T12:44:58.446Z,8.5
2022-08-17T12:46:07.573Z,8.4
2022-08-17T12:47:17.706Z,8.5
2022-08-17T12:48:27.817Z,8.6
2022-08-17T12:49:37.940Z,8.6
2022-08-17T12:50:48.050Z,8.5
2022-08-17T12:51:58.176Z,8.5
2022-08-17T12:53:08.303Z,8.5
2022-08-17T12:54:18.557Z,8.4
2022-08-17T12:55:27.700Z,8.5
2022-08-17T12:56:37.815Z,8.9
2022-08-17T12:57:46.967Z,8.7
2022-08-17T12:58:56.096Z,8.7
2022-08-17T13:00:06.207Z,8.4
2022-08-17T13:01:16.329Z,8.6
2022-08-17T13:02:26.453Z,8.4
2022-08-17T13:03:36.571Z,8.8
2022-08-17T13:04:46.690Z,8.9
2022-08-17T13:05:56.798Z,8.8
2022-08-17T13:07:06.931Z,8.9
2022-08-17T13:08:17.038Z,8.9
2022-08-17T13:09:27.152Z,8.9
2022-08-17T13:10:37.288Z,8.6
2022-08-17T13:11:47.409Z,8.6
2022-08-17T13:12:57.517Z,8.4
2022-08-17T13:14:06.644Z,8.6
2022-08-17T13:15:16.772Z,8.6
2022-08-17T13:16:26.895Z,8.8
2022-08-17T13:17:37.017Z,8.4
2022-08-17T13:18:47.126Z,8.3
2022-08-17T13:19:57.243Z,8.7
2022-08-17T13:21:07.366Z,8.6
2022-08-17T13:22:16.500Z,8.5
2022-08-17T13:23:25.652Z,8.5
2022-08-17T13:24:35.754Z,8.3
2022-08-17T13:25:45.885Z,8.5
2022-08-17T13:26:55.019Z,8.6
2022-08-17T13:28:05.143Z,8.4
2022-08-17T13:29:15.259Z,8.3
2022-08-17T13:30:25.371Z,8.3
2022-08-17T13:31:35.502Z,8.5
2022-08-17T13:32:45.618Z,8.3
2022-08-17T13:33:55.739Z,8.6
2022-08-17T13:35:05.852Z,8.4
2022-08-17T13:36:15.961Z,8.4
2022-08-17T13:37:26.086Z,8.4
2022-08-17T13:38:36.208Z,8.5
2022-08-17T13:39:46.330Z,8.6
2022-08-17T13:40:56.438Z,8.5
2022-08-17T13:42:05.586Z,8.4
2022-08-17T13:43:15.700Z,8.3
2022-08-17T13:44:25.819Z,8.4
2022-08-17T13:45:35.933Z,8.4
2022-08-17T13:46:45.078Z,8.5
2022-08-17T13:47:54.216Z,8.5
2022-08-17T13:49:03.365Z,8.2
2022-08-17T13:50:12.499Z,8.2
2022-08-17T13:51:22.627Z,8.5
2022-08-17T13:52:32.724Z,8.6
2022-08-17T13:53:42.849Z,8.3
2022-08-17T13:54:52.976Z,8.2
2022-08-17T13:56:03.091Z,8.3
2022-08-17T13:57:13.206Z,8.3
2022-08-17T13:58:23.319Z,8.4
2022-08-17T14:00:43.567Z,8.2
2022-08-17T14:01:53.672Z,8.3
2022-08-17T14:03:03.802Z,8.1
2022-08-17T14:04:13.937Z,8.2
2022-08-17T14:05:23.044Z,8.5
2022-08-17T14:06:33.171Z,8.3
2022-08-17T14:07:43.287Z,8.4
2022-08-17T14:08:53.404Z,8.3
2022-08-17T14:10:03.527Z,8.2
2022-08-17T14:11:13.642Z,8.3
2022-08-17T14:12:23.774Z,8.1
2022-08-17T14:13:33.879Z,8.1
2022-08-17T14:14:43.034Z,8.1
2022-08-17T14:15:52.169Z,8.1
2022-08-17T14:17:01.313Z,8.5
2022-08-17T14:18:10.437Z,8.1
2022-08-17T14:19:20.565Z,8.3
2022-08-17T14:20:30.669Z,8.3
2022-08-17T14:21:40.801Z,8.5
2022-08-17T14:22:50.907Z,8.3
2022-08-17T14:24:01.028Z,8.5
2022-08-17T14:25:11.148Z,8.4
2022-08-17T14:26:21.264Z,8.2
2022-08-17T14:27:31.397Z,8.2
2022-08-17T14:28:41.517Z,8.1
2022-08-17T14:29:51.620Z,8.1
2022-08-17T14:31:01.743Z,8.4
2022-08-17T14:32:11.875Z,8.3
2022-08-17T14:33:21.001Z,8.3
2022-08-17T14:34:31.117Z,8.4
2022-08-17T14:35:41.244Z,8.1
2022-08-17T14:36:51.356Z,8.3
2022-08-17T14:38:01.466Z,8.3
2022-08-17T14:39:11.590Z,8.2
2022-08-17T14:40:21.718Z,8.3
2022-08-17T14:41:30.855Z,8.3
2022-08-17T14:42:40.974Z,8.1
2022-08-17T14:43:50.116Z,8.3
2022-08-17T14:45:00.236Z,8.4
2022-08-17T14:46:10.356Z,8.3
2022-08-17T14:47:20.474Z,8.3
2022-08-17T14:48:30.577Z,8.4
2022-08-17T14:49:40.700Z,8.4
2022-08-17T14:50:50.828Z,8.2
2022-08-17T14:52:00.943Z,8.4
2022-08-17T14:53:11.068Z,8.5
2022-08-17T14:54:21.198Z,8.3
2022-08-17T14:55:31.295Z,8.3
2022-08-17T14:56:41.418Z,8.3
2022-08-17T14:57:51.546Z,8.3
2022-08-17T14:59:00.661Z,8.3
2022-08-17T15:00:10.794Z,8.3
2022-08-17T15:01:20.910Z,8.3
2022-08-17T15:02:31.018Z,8.1
2022-08-17T15:03:41.146Z,8.4
2022-08-17T15:04:51.273Z,8.3
2022-08-17T15:06:00.407Z,8.5
2022-08-17T15:07:09.553Z,8.3
2022-08-17T15:08:19.654Z,8.5
2022-08-17T15:09:29.783Z,8.2
2022-08-17T15:10:39.899Z,8.3
2022-08-17T15:11:50.012Z,8.5
2022-08-17T15:13:00.138Z,8.1
2022-08-17T15:14:10.266Z,8.4
2022-08-17T15:15:20.374Z,8.2
2022-08-17T15:16:30.500Z,8.3
2022-08-17T15:17:40.604Z,8.1
2022-08-17T15:18:50.737Z,8.5
2022-08-17T15:20:00.840Z,8.3
2022-08-17T15:21:10.967Z,8.1
2022-08-17T15:22:20.106Z,8.2
2022-08-17T15:23:30.227Z,8.2
2022-08-17T15:24:40.339Z,8.2
2022-08-17T15:25:50.456Z,8.4
2022-08-17T15:27:00.576Z,8.1
2022-08-17T15:28:10.688Z,8.1
2022-08-17T15:29:20.813Z,8.2
2022-08-17T15:30:29.955Z,8.1
2022-08-17T15:31:39.101Z,8.1
2022-08-17T15:32:48.235Z,8.1
2022-08-17T15:33:57.381Z,8.1
2022-08-17T15:35:07.496Z,8.3
2022-08-17T15:36:17.606Z,8.2
2022-08-17T15:37:27.740Z,8.1
2022-08-17T15:38:37.847Z,8.2
2022-08-17T15:39:47.969Z,8.4
2022-08-17T15:40:58.084Z,8.4
2022-08-17T15:42:08.197Z,8.1
2022-08-17T15:43:18.333Z,8.1
2022-08-17T15:44:28.448Z,8.5
2022-08-17T15:45:38.571Z,8.1
2022-08-17T15:46:48.687Z,8.1
2022-08-17T15:47:58.793Z,8.3
2022-08-17T15:49:07.937Z,8.3
2022-08-17T15:50:18.063Z,8.2
2022-08-17T15:51:28.179Z,8.4
2022-08-17T15:52:38.300Z,8.2
2022-08-17T15:53:48.412Z,8.1
2022-08-17T15:54:58.530Z,8.3
2022-08-17T15:56:08.645Z,8.4
2022-08-17T15:57:17.795Z,8.3
2022-08-17T15:58:27.920Z,8.2
2022-08-17T15:59:37.057Z,8.3
2022-08-17T16:00:46.194Z,8.4
2022-08-17T16:01:55.331Z,8
2022-08-17T16:03:04.464Z,7.8
2022-08-17T16:04:13.615Z,8.2
2022-08-17T16:05:22.742Z,7.9
2022-08-17T16:06:32.867Z,8.4
2022-08-17T16:07:42.978Z,8.1
2022-08-17T16:08:53.114Z,8
2022-08-17T16:10:03.217Z,8.3
2022-08-17T16:11:13.338Z,8.2
2022-08-17T16:12:23.466Z,8.1
2022-08-17T16:13:33.584Z,8.4
2022-08-17T16:14:43.700Z,8.4
2022-08-17T16:15:53.823Z,8.2
2022-08-17T16:17:03.936Z,8.2
2022-08-17T16:18:14.059Z,8.1